Westdale, New York
Current Conditions -  °F | °C
As of 7:53 PM on Monday 22 Dec 2014 (Local Time) from KRME Reporting Station
Overcast Overcast  
Wind Chill: 27°   Ceiling: 3600
Heat Index: 34°   Visibility: 10mi
Dew Point: 31°   Wind: 8mph
Humidity: 89%   Direction: 150°SSE
Pressure: 30.22"   Gusts: NA
Location:  43.39°N, 75.82°W
Report Text: KRME 230053Z 15007KT 10SM OVC036 01/M01 A3022 RMK AO2 SLP239 T00111006
Loading
Personal Weather Stations






























Interactive Weather Map New forecast layout! Learn more

10-Day Weather Forecast

Advertisements
Track Severe Weather on mobile